Airfield :







YOU CAN JOIN US ON...

 
LOGIN :

Register | Disclaimer

   EN    FR    IT 

 









Legend :    VFR   Marginal VFR   IFR   Intensive IFR   Very Intensive IFR
Visi :
Ceiling :
>= 8 km
>= 3000ft
5 to 8 km
1000 to 3000 ft
1500m to 5 km
500 to 1000 ft
800 to 1500m
200 to 500 ft
< 800m
< 200 ft
Symbols :   Thunderstorms  Fog  Heavy snow  Heavy precipitations  Wind > 20 kt






- Airport Elevation : 21 ft
- IATA code : YVM


CYVM - Qikiqtarjuac

CURRENT METAR :
  • 170423Z AUTO 05007KT 9SM -SN BKN020 OVC025 M06/M08 A2974 RMK SLP073

EXPIRED METARs :
  • 170409Z AUTO 05008KT 9SM -SN BKN019 OVC025 M06/M08 A2974 RMK SLP073
  • 170346Z AUTO 07006KT 9SM -SN BKN020 OVC026 M07/M09 A2974 RMK SLP073
  • 170300Z AUTO 05009KT 9SM -SN OVC028 M06/M08 A2975 RMK SLP077
  • 170200Z AUTO 05007KT 9SM -SN FEW018 BKN029 OVC036 M06/M08 A2977 RMK SLP083

TAF TAF CYVM
Valid from the 17 at 01:00 until the 17 at 13:00 UTC


170038Z 1701/1713 03010KT P6SM SCT015 BKN025
TEMPO 1701/1713 4SM -SN OVC015 RMK FCST BASED ON AUTO OBS. NXT FCST BY 170700Z



MET'MAP, your aeronautical weather chart ! - Copyright ORBIFLY December 2007 - Disclaimer

ORBIFLY MET'MAP TEAM :

Programming & Development : Alexandra Zaïnal
Concept & Development : Baudouin d'Aumeries
Co-Development & Prog : Marc-Olivier Méhu
Technical & hardware support : Manuel Goepfert

Contact : metmap@orbifly.com




SOURCES & CREDITS :

   NOAA